Auburn, ME

4:24 AM EDT on October 02, 2014 (GMT -0400)
Riverside | Change Station
CLOSE
Current Station
Personal Weather Station
Location: Lewiston, ME
Elevation: 217 ft
Nearby Weather Stations

Elev 217 ft 44.11 °N, 70.21 °W | Updated 12 seconds ago

Overcast
Overcast
53.7 °F
Feels Like 53.7 °F
N
0.0
Wind Variable Wind from South
Gusts 0.0 mph

Today
High -- | Low -- °F
--% Chance of Precip.
Yesterday
High -- | Low -- °F
Precip. -- in
6:39 AM 6:20 PM
First Quarter, 56% visible
Pressure 30.18 in
Visibility 10.0 miles
Clouds Mostly Cloudy 1200 ft
Overcast 2000 ft
Dew Point 50 °F
Humidity 86%
Rainfall 0.00 in
Snow Depth Not available.
UV 0 out of 12
Pollen .40 out of 12
Air Quality Not available.
Flu Activity Not available.
METAR KLEW 020815Z AUTO 04004KT 10SM BKN012 OVC020 12/09 A3018 RMK AO1

More Conditions Fewer Conditions

Pressure 30.18 in
Visibility 10.0 miles
Clouds Mostly Cloudy 1200 ft
Overcast 2000 ft
Dew Point 50 °F
Humidity 86%
Rainfall 0.00 in
Snow Depth Not available.
UV 0 out of 12
Pollen .40 out of 12
Air Quality Not available.
Flu Activity Not available.
METAR KLEW 020815Z AUTO 04004KT 10SM BKN012 OVC020 12/09 A3018 RMK AO1

More Conditions Fewer Conditions

10-Day Weather Forecast

Almanac

Astronomy

Oct. 02, 2014 Rise Set
Actual Time 6:39 AM EDT 6:20 PM EDT
Civil Twilight 6:11 AM EDT 6:48 PM EDT
Nautical Twilight 5:37 AM EDT 7:22 PM EDT
Astronomical Twilight 5:03 AM EDT 7:56 PM EDT
Moon 2:34 PM EDT No Moon Set
Length of Visible Light 12h 37m
Length of Day
11h 40m
Tomorrow will be 3m 0s shorter.
First Quarter, 56% of the Moon is Illuminated
Today
First Quarter
Oct 8
Full
Oct 15
Last Quarter
Oct 23
New
Oct 30
First Quarter

Today's Extremes

State Highs State Lows

Community

WunderPhotos

Upload Photos

1,758,196 photos uploaded!

WunderBlogs® & News

By Dr. Jeff Masters
Director of Meteorology, Weather Underground
By Kari Strenfel
Meteorologist, Weather Underground
By Christopher C. Burt
Weather Historian, Weather Underground
October 2, 2014
October 2, 2014
October 2, 2014

Nearby

Air Quality

  Air Quality AQ Index Pollutant
Thursday Good
OZONE
Thursday Good
PM2.5
Friday Good
OZONE
Friday Good
PM2.5
Saturday Good
OZONE
Saturday Good
PM2.5

Snow Depth

Station Depth Elevation
No new snow has been reported.

Earthquake Activity

City Distance Mag. Time & Date
No recent earthquake activity has been reported nearby.
Minimum magnitude displayed is 2.5.

Coastal Water Temperatures

Place Temperature
Portland, ME 57.9 °F
Wells, ME 57.0 °F

Nearby Weather Stations